createdAt,value
2019-02-10T00:00:53.361Z,9.20
2019-02-10T00:03:22.385Z,9.10
2019-02-10T00:05:51.409Z,9.10
2019-02-10T00:08:22.105Z,9.10
2019-02-10T00:10:51.605Z,9.10
2019-02-10T00:16:58.407Z,9.00
2019-02-10T00:19:37.793Z,9.10
2019-02-10T00:22:17.668Z,9.10
2019-02-10T00:24:58.939Z,9.10
2019-02-10T00:27:27.857Z,9.10
2019-02-10T00:29:56.786Z,9.10
2019-02-10T00:32:25.642Z,9.20
2019-02-10T00:34:54.549Z,9.20
2019-02-10T00:37:23.404Z,9.20
2019-02-10T00:39:52.281Z,9.20
2019-02-10T00:42:21.560Z,9.20
2019-02-10T00:44:50.405Z,9.20
2019-02-10T00:47:19.958Z,9.20
2019-02-10T00:49:48.905Z,9.30
2019-02-10T00:52:18.060Z,9.30
2019-02-10T00:54:47.008Z,9.30
2019-02-10T00:57:15.977Z,9.30
2019-02-10T00:59:44.849Z,9.30
2019-02-10T01:02:13.704Z,9.30
2019-02-10T01:04:42.758Z,9.30
2019-02-10T01:07:11.639Z,9.30
2019-02-10T01:09:40.593Z,9.30
2019-02-10T01:12:09.628Z,9.20
2019-02-10T01:14:38.504Z,9.20
2019-02-10T01:17:07.589Z,9.20
2019-02-10T01:19:36.594Z,9.20
2019-02-10T01:22:05.557Z,9.20
2019-02-10T01:24:34.505Z,9.20
2019-02-10T01:27:03.590Z,9.20
2019-02-10T01:29:32.668Z,9.20
2019-02-10T01:32:01.664Z,9.20
2019-02-10T01:34:30.844Z,9.20
2019-02-10T01:36:59.912Z,9.20
2019-02-10T01:39:28.779Z,9.20
2019-02-10T01:41:58.549Z,9.20
2019-02-10T01:44:27.559Z,9.20
2019-02-10T01:46:56.571Z,9.20
2019-02-10T01:49:25.909Z,9.20
2019-02-10T01:51:54.797Z,9.20
2019-02-10T01:54:23.932Z,9.20
2019-02-10T01:56:53.733Z,9.10
2019-02-10T01:59:22.666Z,9.10
2019-02-10T02:01:51.789Z,9.20
2019-02-10T02:04:20.712Z,9.10
2019-02-10T02:06:57.729Z,9.20
2019-02-10T02:09:21.640Z,9.20
2019-02-10T02:11:50.495Z,9.20
2019-02-10T02:14:19.536Z,9.10
2019-02-10T02:16:48.548Z,9.10
2019-02-10T02:19:17.501Z,9.20
2019-02-10T02:21:46.529Z,9.20
2019-02-10T02:24:15.382Z,9.20
2019-02-10T02:26:44.340Z,9.20
2019-02-10T02:29:13.332Z,9.20
2019-02-10T02:31:42.204Z,9.20
2019-02-10T02:34:11.212Z,9.20
2019-02-10T02:36:42.947Z,9.20
2019-02-10T02:39:12.012Z,9.20
2019-02-10T02:41:41.344Z,9.20
2019-02-10T02:44:10.344Z,9.20
2019-02-10T02:46:39.274Z,9.20
2019-02-10T02:49:08.308Z,9.10
2019-02-10T02:51:37.215Z,9.20
2019-02-10T02:54:06.218Z,9.10
2019-02-10T02:56:35.388Z,9.10
2019-02-10T02:59:04.612Z,9.10
2019-02-10T03:01:33.666Z,9.10
2019-02-10T03:04:02.512Z,9.20
2019-02-10T03:06:45.287Z,9.10
2019-02-10T03:09:15.548Z,9.10
2019-02-10T03:11:44.858Z,8.90
2019-02-10T03:14:13.724Z,8.80
2019-02-10T03:16:42.985Z,8.80
2019-02-10T03:19:11.842Z,8.80
2019-02-10T03:21:40.788Z,8.80
2019-02-10T03:24:09.801Z,8.80
2019-02-10T03:26:38.656Z,8.80
2019-02-10T03:29:07.544Z,8.80
2019-02-10T03:31:36.480Z,8.80
2019-02-10T03:34:05.445Z,8.80
2019-02-10T03:36:34.330Z,8.80
2019-02-10T03:39:04.715Z,8.80
2019-02-10T03:41:33.720Z,8.80
2019-02-10T03:44:02.681Z,8.80
2019-02-10T03:46:31.538Z,8.70
2019-02-10T03:49:00.476Z,8.70
2019-02-10T03:51:31.374Z,8.70
2019-02-10T03:54:00.298Z,8.70
2019-02-10T03:56:29.240Z,8.70
2019-02-10T03:58:58.530Z,8.70
2019-02-10T04:01:28.112Z,8.70
2019-02-10T04:03:56.965Z,8.70
2019-02-10T04:06:26.020Z,8.80
2019-02-10T04:08:54.880Z,8.80
2019-02-10T04:11:23.804Z,8.80
2019-02-10T04:13:52.672Z,8.80
2019-02-10T04:16:21.523Z,8.80
2019-02-10T04:18:50.413Z,8.80
2019-02-10T04:21:19.337Z,8.70
2019-02-10T04:23:48.266Z,8.70
2019-02-10T04:26:17.223Z,8.60
2019-02-10T04:28:46.082Z,8.60
2019-02-10T04:31:14.934Z,8.60
2019-02-10T04:33:43.833Z,8.60
2019-02-10T04:36:12.756Z,8.60
2019-02-10T04:38:41.708Z,8.60
2019-02-10T04:41:10.920Z,8.60
2019-02-10T04:43:39.776Z,8.60
2019-02-10T04:46:09.456Z,8.60
2019-02-10T04:48:38.460Z,8.60
2019-02-10T04:51:07.968Z,8.50
2019-02-10T04:53:37.264Z,8.40
2019-02-10T04:56:25.812Z,8.50
2019-02-10T04:58:54.812Z,8.50
2019-02-10T05:01:23.684Z,8.40
2019-02-10T05:03:52.873Z,8.30
2019-02-10T05:06:21.915Z,8.40
2019-02-10T05:08:50.758Z,8.30
2019-02-10T05:11:19.661Z,8.30
2019-02-10T05:13:48.600Z,8.30
2019-02-10T05:16:17.568Z,8.30
2019-02-10T05:18:46.448Z,8.30
2019-02-10T05:21:15.322Z,8.20
2019-02-10T05:23:44.328Z,8.20
2019-02-10T05:26:13.268Z,8.20
2019-02-10T05:28:42.136Z,8.20
2019-02-10T05:31:11.168Z,8.20
2019-02-10T05:33:40.467Z,8.20
2019-02-10T05:36:09.421Z,8.10
2019-02-10T05:38:38.291Z,8.20
2019-02-10T05:41:07.509Z,8.30
2019-02-10T05:43:36.412Z,8.30
2019-02-10T05:46:05.432Z,8.30
2019-02-10T05:48:34.439Z,8.30
2019-02-10T05:51:03.369Z,8.30
2019-02-10T05:53:32.269Z,8.40
2019-02-10T05:56:13.584Z,8.40
2019-02-10T05:58:54.310Z,8.40
2019-02-10T06:02:00.111Z,8.40
2019-02-10T06:04:29.380Z,8.50
2019-02-10T06:07:00.964Z,8.50
2019-02-10T06:09:30.228Z,8.20
2019-02-10T06:11:59.188Z,8.10
2019-02-10T06:14:28.161Z,8.20
2019-02-10T06:16:57.036Z,8.30
2019-02-10T06:19:25.980Z,8.40
2019-02-10T06:21:54.919Z,8.50
2019-02-10T06:24:23.788Z,8.50
2019-02-10T06:26:52.652Z,8.50
2019-02-10T06:29:21.535Z,8.60
2019-02-10T06:31:50.585Z,8.60
2019-02-10T06:34:19.520Z,8.70
2019-02-10T06:36:48.575Z,8.70
2019-02-10T06:39:17.421Z,8.70
2019-02-10T06:41:46.405Z,8.70
2019-02-10T06:44:15.737Z,8.60
2019-02-10T06:46:44.641Z,8.60
2019-02-10T06:49:13.792Z,8.60
2019-02-10T06:51:43.696Z,8.60
2019-02-10T06:54:13.049Z,8.70
2019-02-10T06:56:41.928Z,8.80
2019-02-10T06:59:23.229Z,8.90
2019-02-10T07:01:56.653Z,8.90
2019-02-10T07:04:30.352Z,8.90
2019-02-10T07:07:00.132Z,9.00
2019-02-10T07:09:28.980Z,9.00
2019-02-10T07:11:57.844Z,9.00
2019-02-10T07:14:32.381Z,9.00
2019-02-10T07:17:45.036Z,9.10
2019-02-10T07:20:40.370Z,9.10
2019-02-10T07:23:35.568Z,9.10
2019-02-10T07:26:16.389Z,9.10
2019-02-10T07:29:05.452Z,9.10
2019-02-10T07:31:48.773Z,9.10
2019-02-10T07:34:48.267Z,9.10
2019-02-10T07:37:52.558Z,9.10
2019-02-10T07:41:19.381Z,9.20
2019-02-10T07:44:31.166Z,9.10
2019-02-10T07:47:19.086Z,9.20
2019-02-10T07:50:11.820Z,9.20
2019-02-10T07:53:18.384Z,9.30
2019-02-10T07:56:20.253Z,9.30
2019-02-10T07:59:19.951Z,9.30
2019-02-10T08:02:51.281Z,9.40
2019-02-10T08:05:39.352Z,9.30
2019-02-10T08:08:47.180Z,9.30
2019-02-10T08:11:40.150Z,9.30
2019-02-10T08:14:50.957Z,9.30
2019-02-10T08:17:44.244Z,9.30
2019-02-10T08:20:53.618Z,9.30
2019-02-10T08:23:47.556Z,9.40
2019-02-10T08:26:54.670Z,9.40
2019-02-10T08:29:54.256Z,9.40
2019-02-10T08:32:43.139Z,9.40
2019-02-10T08:35:35.597Z,9.30
2019-02-10T08:38:54.371Z,9.30
2019-02-10T08:41:54.017Z,9.30
2019-02-10T08:44:37.957Z,9.30
2019-02-10T08:47:36.328Z,9.30
2019-02-10T08:50:55.452Z,9.30
2019-02-10T08:53:28.706Z,9.20
2019-02-10T08:55:57.683Z,9.20
2019-02-10T08:58:28.856Z,9.20
2019-02-10T09:00:58.010Z,9.20
2019-02-10T09:03:28.267Z,9.20
2019-02-10T09:05:57.208Z,9.20
2019-02-10T09:08:26.150Z,9.20
2019-02-10T09:10:55.352Z,9.20
2019-02-10T09:13:24.659Z,9.20
2019-02-10T09:15:55.796Z,9.30
2019-02-10T09:18:24.868Z,9.20
2019-02-10T09:20:53.856Z,9.20
2019-02-10T09:23:24.325Z,9.20
2019-02-10T09:25:53.321Z,9.20
2019-02-10T09:28:22.186Z,9.10
2019-02-10T09:30:51.071Z,9.10
2019-02-10T09:33:20.017Z,9.10
2019-02-10T09:35:48.984Z,9.00
2019-02-10T09:38:18.094Z,9.00
2019-02-10T09:40:47.040Z,9.00
2019-02-10T09:43:15.965Z,8.80
2019-02-10T09:45:45.153Z,8.70
2019-02-10T09:48:14.125Z,8.70
2019-02-10T09:50:43.136Z,8.60
2019-02-10T09:53:12.166Z,8.50
2019-02-10T09:55:41.100Z,8.50
2019-02-10T09:58:10.078Z,8.50
2019-02-10T10:00:39.060Z,8.40
2019-02-10T10:03:08.082Z,8.40
2019-02-10T10:05:37.096Z,8.30
2019-02-10T10:08:06.423Z,8.30
2019-02-10T10:10:35.939Z,8.30
2019-02-10T10:13:05.302Z,8.20
2019-02-10T10:15:34.243Z,8.20
2019-02-10T10:18:03.268Z,8.20
2019-02-10T10:20:32.118Z,8.10
2019-02-10T10:23:01.181Z,8.20
2019-02-10T10:25:30.128Z,8.10
2019-02-10T10:27:59.108Z,8.10
2019-02-10T10:30:28.165Z,8.00
2019-02-10T10:32:57.974Z,8.00
2019-02-10T10:35:26.964Z,8.10
2019-02-10T10:37:55.936Z,8.10
2019-02-10T10:40:25.033Z,8.00
2019-02-10T10:42:54.432Z,8.00
2019-02-10T10:45:23.297Z,8.00
2019-02-10T10:47:52.320Z,8.00
2019-02-10T10:50:21.332Z,7.90
2019-02-10T10:52:50.398Z,8.00
2019-02-10T10:55:19.644Z,8.00
2019-02-10T10:57:51.669Z,7.90
2019-02-10T11:00:20.766Z,7.90
2019-02-10T11:02:49.663Z,8.00
2019-02-10T11:05:19.551Z,8.00
2019-02-10T11:07:53.171Z,8.10
2019-02-10T11:10:22.266Z,8.10
2019-02-10T11:12:51.409Z,8.00
2019-02-10T11:15:20.450Z,8.00
2019-02-10T11:17:49.779Z,8.00
2019-02-10T11:20:18.737Z,8.10
2019-02-10T11:22:47.783Z,8.10
2019-02-10T11:25:16.783Z,8.10
2019-02-10T11:27:45.725Z,8.10
2019-02-10T11:30:14.723Z,8.10
2019-02-10T11:32:43.665Z,8.10
2019-02-10T11:35:12.820Z,8.20
2019-02-10T11:37:41.893Z,8.30
2019-02-10T11:40:10.970Z,8.30
2019-02-10T11:42:40.013Z,8.40
2019-02-10T11:45:09.741Z,8.40
2019-02-10T11:47:40.341Z,8.30
2019-02-10T11:50:09.872Z,8.30
2019-02-10T11:52:39.668Z,8.40
2019-02-10T11:55:08.734Z,8.40
2019-02-10T11:57:37.710Z,8.40
2019-02-10T12:00:07.666Z,8.50
2019-02-10T12:02:38.251Z,8.50
2019-02-10T12:05:08.799Z,8.40
2019-02-10T12:07:37.738Z,8.40
2019-02-10T12:10:07.040Z,8.40
2019-02-10T12:12:36.324Z,8.30
2019-02-10T12:15:06.069Z,8.30
2019-02-10T12:17:36.078Z,8.40
2019-02-10T12:20:05.656Z,8.40
2019-02-10T12:22:34.969Z,8.40
2019-02-10T12:25:04.064Z,8.40
2019-02-10T12:27:33.084Z,8.40
2019-02-10T12:30:03.200Z,8.40
2019-02-10T12:32:32.481Z,8.30
2019-02-10T12:35:01.424Z,8.40
2019-02-10T12:37:32.532Z,8.30
2019-02-10T12:40:01.255Z,8.30
2019-02-10T12:42:32.977Z,8.30
2019-02-10T12:45:02.040Z,8.40
2019-02-10T12:47:30.991Z,8.40
2019-02-10T12:49:59.855Z,8.40
2019-02-10T12:52:28.854Z,8.30
2019-02-10T12:54:58.665Z,8.40
2019-02-10T12:57:27.737Z,8.40
2019-02-10T12:59:56.825Z,8.40
2019-02-10T13:02:25.769Z,8.40
2019-02-10T13:04:55.002Z,8.30
2019-02-10T13:07:23.972Z,8.40
2019-02-10T13:09:52.903Z,8.40
2019-02-10T13:12:22.263Z,8.40
2019-02-10T13:14:51.213Z,8.40
2019-02-10T13:17:21.870Z,8.40
2019-02-10T13:19:51.313Z,8.40
2019-02-10T13:22:20.568Z,8.30
2019-02-10T13:24:49.433Z,8.20
2019-02-10T13:27:18.457Z,8.20
2019-02-10T13:29:47.487Z,8.30
2019-02-10T13:32:16.461Z,8.30
2019-02-10T13:34:45.552Z,8.20
2019-02-10T13:37:14.776Z,8.20
2019-02-10T13:39:44.344Z,8.10
2019-02-10T13:42:13.457Z,8.00
2019-02-10T13:44:42.941Z,8.00
2019-02-10T13:47:12.035Z,8.10
2019-02-10T13:49:41.743Z,8.10
2019-02-10T13:52:12.289Z,8.00
2019-02-10T13:54:42.549Z,8.00
2019-02-10T13:57:11.694Z,8.10
2019-02-10T13:59:40.944Z,8.00
2019-02-10T14:02:11.806Z,8.10
2019-02-10T14:04:40.848Z,8.10
2019-02-10T14:07:09.822Z,8.20
2019-02-10T14:09:38.916Z,8.20
2019-02-10T14:12:07.928Z,8.30
2019-02-10T14:14:36.818Z,8.20
2019-02-10T14:17:05.957Z,8.20
2019-02-10T14:19:34.894Z,8.20
2019-02-10T14:22:04.032Z,8.10
2019-02-10T14:24:36.448Z,8.20
2019-02-10T14:27:11.056Z,8.00
2019-02-10T14:29:52.897Z,8.00
2019-02-10T14:32:23.937Z,8.00
2019-02-10T14:35:03.990Z,8.00
2019-02-10T14:37:37.178Z,8.00
2019-02-10T14:40:33.822Z,8.00
2019-02-10T14:43:09.982Z,8.00
2019-02-10T14:46:10.311Z,8.00
2019-02-10T14:48:49.054Z,8.00
2019-02-10T14:51:20.797Z,7.90
2019-02-10T14:53:57.067Z,7.90
2019-02-10T14:56:38.398Z,8.00
2019-02-10T14:59:19.730Z,8.00
2019-02-10T15:01:53.313Z,8.00
2019-02-10T15:04:24.883Z,8.00
2019-02-10T15:07:00.362Z,8.00
2019-02-10T15:09:33.978Z,7.90
2019-02-10T15:12:11.604Z,7.70
2019-02-10T15:14:54.850Z,7.60
2019-02-10T15:17:34.272Z,7.60
2019-02-10T15:20:07.910Z,7.60
2019-02-10T15:22:40.070Z,7.60
2019-02-10T15:25:11.353Z,7.50
2019-02-10T15:27:53.208Z,7.40
2019-02-10T15:30:29.709Z,7.30
2019-02-10T15:33:07.851Z,7.30
2019-02-10T15:35:42.850Z,7.20
2019-02-10T15:38:20.357Z,7.10
2019-02-10T15:40:50.377Z,7.10
2019-02-10T15:43:24.915Z,7.00
2019-02-10T15:45:57.059Z,6.90
2019-02-10T15:48:26.956Z,6.90
2019-02-10T15:50:57.014Z,6.90
2019-02-10T15:53:39.955Z,6.80
2019-02-10T15:56:18.757Z,6.80
2019-02-10T15:58:50.185Z,6.80
2019-02-10T16:01:21.841Z,6.60
2019-02-10T16:04:03.602Z,6.50
2019-02-10T16:06:41.706Z,6.40
2019-02-10T16:09:19.136Z,6.30
2019-02-10T16:11:54.397Z,6.30
2019-02-10T16:14:32.801Z,6.20
2019-02-10T16:17:04.854Z,6.20
2019-02-10T16:19:36.292Z,6.20
2019-02-10T16:22:13.988Z,6.10
2019-02-10T16:24:53.402Z,6.10
2019-02-10T16:27:33.871Z,6.00
2019-02-10T16:30:06.369Z,5.90
2019-02-10T16:32:49.707Z,5.90
2019-02-10T16:35:18.782Z,5.80
2019-02-10T16:37:56.614Z,5.80
2019-02-10T16:40:29.053Z,5.70
2019-02-10T16:42:59.582Z,5.70
2019-02-10T16:45:29.503Z,5.60
2019-02-10T16:47:59.409Z,5.70
2019-02-10T16:50:31.578Z,5.60
2019-02-10T16:53:08.642Z,5.70
2019-02-10T16:55:39.215Z,5.60
2019-02-10T16:58:12.482Z,5.50
2019-02-10T17:00:45.290Z,5.50
2019-02-10T17:03:21.312Z,5.60
2019-02-10T17:06:01.274Z,5.50
2019-02-10T17:08:32.440Z,5.50
2019-02-10T17:11:14.443Z,5.50
2019-02-10T17:13:43.027Z,5.50
2019-02-10T17:19:30.874Z,5.40
2019-02-10T17:22:19.936Z,5.40
2019-02-10T17:25:02.856Z,5.50
2019-02-10T17:27:46.088Z,5.40
2019-02-10T17:30:31.332Z,5.40
2019-02-10T17:33:04.997Z,5.40
2019-02-10T17:35:36.211Z,5.30
2019-02-10T17:38:18.202Z,5.30
2019-02-10T17:41:22.657Z,5.40
2019-02-10T17:43:58.185Z,5.40
2019-02-10T17:46:34.273Z,5.30
2019-02-10T17:49:10.466Z,5.30
2019-02-10T17:51:50.639Z,5.30
2019-02-10T17:54:29.057Z,5.30
2019-02-10T17:57:04.758Z,5.20
2019-02-10T17:59:54.887Z,5.20
2019-02-10T18:02:22.763Z,5.20
2019-02-10T18:04:59.739Z,5.20
2019-02-10T18:07:56.953Z,5.10
2019-02-10T18:10:29.395Z,5.10
2019-02-10T18:13:01.205Z,5.00
2019-02-10T18:15:51.315Z,5.00
2019-02-10T18:18:35.732Z,5.00
2019-02-10T18:21:25.515Z,5.00
2019-02-10T18:24:27.498Z,5.00
2019-02-10T18:27:19.525Z,5.00
2019-02-10T18:30:16.883Z,5.00
2019-02-10T18:33:09.654Z,5.00
2019-02-10T18:36:14.630Z,5.00
2019-02-10T18:39:04.678Z,5.00
2019-02-10T18:41:52.282Z,5.10
2019-02-10T18:44:45.567Z,5.10
2019-02-10T18:47:46.204Z,5.20
2019-02-10T18:50:50.419Z,5.20
2019-02-10T18:53:39.769Z,5.20
2019-02-10T18:56:24.829Z,5.30
2019-02-10T18:59:14.012Z,5.30
2019-02-10T19:01:58.562Z,5.30
2019-02-10T19:04:57.578Z,5.30
2019-02-10T19:07:54.683Z,5.30
2019-02-10T19:11:02.999Z,5.30
2019-02-10T19:13:53.669Z,5.40
2019-02-10T19:16:48.421Z,5.40
2019-02-10T19:19:36.069Z,5.40
2019-02-10T19:22:37.813Z,5.50
2019-02-10T19:25:20.533Z,5.50
2019-02-10T19:28:17.900Z,5.60
2019-02-10T19:30:52.683Z,5.60
2019-02-10T19:33:38.528Z,5.70
2019-02-10T19:36:25.059Z,5.70
2019-02-10T19:39:22.623Z,5.80
2019-02-10T19:42:05.393Z,5.80
2019-02-10T19:44:48.989Z,5.80
2019-02-10T19:47:40.133Z,5.80
2019-02-10T19:50:28.890Z,5.80
2019-02-10T19:53:06.954Z,5.70
2019-02-10T19:55:43.209Z,5.70
2019-02-10T19:58:37.341Z,5.70
2019-02-10T20:01:30.277Z,5.70
2019-02-10T20:04:34.018Z,5.70
2019-02-10T20:07:18.627Z,5.80
2019-02-10T20:10:20.489Z,5.80
2019-02-10T20:12:59.711Z,5.80
2019-02-10T20:15:43.640Z,5.80
2019-02-10T20:18:41.114Z,5.80
2019-02-10T20:21:17.489Z,5.70
2019-02-10T20:23:53.980Z,5.70
2019-02-10T20:26:33.888Z,5.70
2019-02-10T20:29:18.393Z,5.70
2019-02-10T20:31:55.736Z,5.70
2019-02-10T20:34:32.596Z,5.70
2019-02-10T20:37:22.781Z,5.80
2019-02-10T20:39:57.422Z,5.80
2019-02-10T20:42:34.410Z,5.80
2019-02-10T20:48:12.253Z,5.80
2019-02-10T20:51:00.249Z,5.70
2019-02-10T20:53:52.070Z,5.80
2019-02-10T20:56:58.500Z,5.80
2019-02-10T21:00:04.549Z,5.80
2019-02-10T21:03:01.787Z,5.80
2019-02-10T21:05:55.916Z,5.80
2019-02-10T21:08:42.881Z,5.80
2019-02-10T21:11:31.953Z,5.80
2019-02-10T21:14:25.819Z,5.80
2019-02-10T21:17:10.673Z,5.80
2019-02-10T21:20:04.860Z,5.90
2019-02-10T21:22:46.433Z,5.90
2019-02-10T21:25:52.738Z,5.90
2019-02-10T21:28:41.517Z,6.00
2019-02-10T21:31:28.494Z,6.00
2019-02-10T21:34:03.485Z,6.10
2019-02-10T21:36:46.800Z,6.10
2019-02-10T21:39:46.968Z,6.10
2019-02-10T21:42:50.131Z,6.10
2019-02-10T21:45:30.473Z,6.10
2019-02-10T21:48:32.301Z,6.10
2019-02-10T21:51:01.447Z,6.20
2019-02-10T21:53:30.821Z,6.20
2019-02-10T21:55:59.913Z,6.30
2019-02-10T21:58:28.918Z,6.30
2019-02-10T22:00:58.094Z,6.30
2019-02-10T22:03:27.331Z,6.30
2019-02-10T22:05:57.381Z,6.40
2019-02-10T22:08:26.441Z,6.40
2019-02-10T22:10:55.497Z,6.40
2019-02-10T22:13:24.370Z,6.40
2019-02-10T22:15:53.308Z,6.40
2019-02-10T22:18:23.064Z,6.40
2019-02-10T22:20:52.026Z,6.30
2019-02-10T22:23:21.112Z,6.30
2019-02-10T22:25:50.443Z,6.20
2019-02-10T22:28:19.389Z,6.30
2019-02-10T22:30:48.469Z,6.20
2019-02-10T22:33:17.457Z,6.20
2019-02-10T22:35:46.802Z,6.20
